createdAt,value
2022-11-16T00:01:01.775Z,48.32
2022-11-16T00:04:04.577Z,48.17
2022-11-16T00:07:07.409Z,48.08
2022-11-16T00:10:11.326Z,48.02
2022-11-16T00:13:15.572Z,48.09
2022-11-16T00:16:19.231Z,48.69
2022-11-16T00:19:21.991Z,48.06
2022-11-16T00:22:24.732Z,48.58
2022-11-16T00:25:27.452Z,48.85
2022-11-16T00:28:32.103Z,48.21
2022-11-16T00:31:34.995Z,48.51
2022-11-16T00:34:37.823Z,49.41
2022-11-16T00:37:40.539Z,48.28
2022-11-16T00:40:43.275Z,48.39
2022-11-16T00:43:47.421Z,48.24
2022-11-16T00:46:50.136Z,48.61
2022-11-16T00:49:52.864Z,48.67
2022-11-16T00:52:55.646Z,48.13
2022-11-16T00:55:58.443Z,48.31
2022-11-16T00:59:02.605Z,47.92
2022-11-16T01:02:05.374Z,48.33
2022-11-16T01:05:08.672Z,48.34
2022-11-16T01:08:11.593Z,47.68
2022-11-16T01:11:32.497Z,48.57
2022-11-16T01:14:36.620Z,48.39
2022-11-16T01:17:40.165Z,48.52
2022-11-16T01:20:42.966Z,48.61
2022-11-16T01:23:45.758Z,48.54
2022-11-16T01:26:48.527Z,48.50
2022-11-16T01:29:52.708Z,48.48
2022-11-16T01:32:55.391Z,48.20
2022-11-16T01:35:58.148Z,48.20
2022-11-16T01:39:00.906Z,48.11
2022-11-16T01:42:03.810Z,48.13
2022-11-16T01:45:20.106Z,48.19
2022-11-16T01:48:25.943Z,47.90
2022-11-16T01:51:29.078Z,47.83
2022-11-16T01:54:33.979Z,48.10
2022-11-16T01:57:39.138Z,48.26
2022-11-16T02:00:43.248Z,48.00
2022-11-16T02:03:46.076Z,48.30
2022-11-16T02:07:00.080Z,47.94
2022-11-16T02:10:08.818Z,47.41
2022-11-16T02:13:18.937Z,47.23
2022-11-16T02:16:30.376Z,46.83
2022-11-16T02:19:46.285Z,46.57
2022-11-16T02:22:57.055Z,46.69
2022-11-16T02:26:08.322Z,47.05
2022-11-16T02:29:17.488Z,46.64
2022-11-16T02:32:21.944Z,46.56
2022-11-16T02:35:26.539Z,46.44
2022-11-16T02:38:29.891Z,46.72
2022-11-16T02:41:34.260Z,46.51
2022-11-16T02:44:41.451Z,46.88
2022-11-16T02:47:46.096Z,46.23
2022-11-16T02:50:52.773Z,46.08
2022-11-16T02:54:00.416Z,46.07
2022-11-16T02:57:23.707Z,46.05
2022-11-16T03:00:29.282Z,46.28
2022-11-16T03:03:35.712Z,45.94
2022-11-16T03:06:41.569Z,46.14
2022-11-16T03:09:46.701Z,46.12
2022-11-16T03:12:48.477Z,46.35
2022-11-16T03:15:55.276Z,46.26
2022-11-16T03:19:00.598Z,46.04
2022-11-16T03:22:06.902Z,46.49
2022-11-16T03:25:10.962Z,46.22
2022-11-16T03:28:16.360Z,46.52
2022-11-16T03:31:22.677Z,46.24
2022-11-16T03:34:28.566Z,46.89
2022-11-16T03:37:32.463Z,46.94
2022-11-16T03:40:36.317Z,47.45
2022-11-16T03:43:39.946Z,47.30
2022-11-16T03:46:44.539Z,47.33
2022-11-16T03:49:47.768Z,47.41
2022-11-16T03:52:50.470Z,47.54
2022-11-16T03:55:53.206Z,47.19
2022-11-16T03:58:56.069Z,47.43
2022-11-16T04:02:00.139Z,47.33
2022-11-16T04:05:20.631Z,47.34
2022-11-16T04:08:40.955Z,47.39
2022-11-16T04:12:01.378Z,47.47
2022-11-16T04:15:21.826Z,47.41
2022-11-16T04:18:43.513Z,47.53
2022-11-16T04:22:06.105Z,47.48
2022-11-16T04:25:11.514Z,47.43
2022-11-16T04:28:13.940Z,47.76
2022-11-16T04:31:42.763Z,47.66
2022-11-16T04:35:04.331Z,47.67
2022-11-16T04:38:07.130Z,47.62
2022-11-16T04:41:30.240Z,47.72
2022-11-16T04:44:49.418Z,47.71
2022-11-16T04:47:52.361Z,47.96
2022-11-16T04:50:56.518Z,47.71
2022-11-16T04:53:59.251Z,47.86
2022-11-16T04:57:01.962Z,47.93
2022-11-16T05:00:05.389Z,48.01
2022-11-16T05:03:08.115Z,48.02
2022-11-16T05:06:12.146Z,47.98
2022-11-16T05:09:15.110Z,47.99
2022-11-16T05:12:18.773Z,47.94
2022-11-16T05:15:21.495Z,47.97
2022-11-16T05:18:24.185Z,47.69
2022-11-16T05:21:27.256Z,47.71
2022-11-16T05:24:36.267Z,47.86
2022-11-16T05:27:39.047Z,47.96
2022-11-16T05:30:41.813Z,47.93
2022-11-16T05:33:44.615Z,48.09
2022-11-16T05:36:48.771Z,47.91
2022-11-16T05:39:51.501Z,47.94
2022-11-16T05:42:54.273Z,47.89
2022-11-16T05:45:56.920Z,48.02
2022-11-16T05:48:59.654Z,47.94
2022-11-16T09:54:16.013Z,48.56
2022-11-16T15:40:17.462Z,48.16
2022-11-16T15:43:21.530Z,48.22
2022-11-16T15:46:26.124Z,47.62
2022-11-16T15:49:30.430Z,47.97
2022-11-16T15:52:42.907Z,47.41
2022-11-16T15:55:50.910Z,48.12
2022-11-16T15:58:54.088Z,47.78
2022-11-16T16:01:57.252Z,47.52
2022-11-16T16:05:00.013Z,47.67
2022-11-16T16:08:03.612Z,47.31
2022-11-16T16:11:10.419Z,48.08
2022-11-16T16:14:22.202Z,47.69
2022-11-16T16:17:25.832Z,47.46
2022-11-16T16:20:29.924Z,47.26
2022-11-16T16:23:33.177Z,47.34
2022-11-16T16:26:37.736Z,46.74
2022-11-16T16:29:40.536Z,46.75
2022-11-16T16:32:43.942Z,46.76
2022-11-16T16:35:49.822Z,46.83
2022-11-16T16:38:53.114Z,46.41
2022-11-16T16:41:58.402Z,46.43
2022-11-16T16:45:04.512Z,46.35
2022-11-16T16:48:10.569Z,46.36
2022-11-16T16:51:13.517Z,46.63
2022-11-16T16:54:18.959Z,46.23
2022-11-16T16:57:24.278Z,46.14
2022-11-16T17:00:29.601Z,46.34
2022-11-16T17:03:32.836Z,46.15
2022-11-16T17:06:36.711Z,46.32
2022-11-16T17:09:39.907Z,46.21
2022-11-16T17:12:45.382Z,46.18
2022-11-16T17:15:48.503Z,45.90
2022-11-16T17:18:58.438Z,46.32
2022-11-16T17:22:01.253Z,45.74
2022-11-16T17:25:05.212Z,45.16
2022-11-16T17:28:10.141Z,45.85
2022-11-16T17:31:13.593Z,45.92
2022-11-16T17:34:16.350Z,46.08
2022-11-16T17:37:19.630Z,45.78
2022-11-16T17:40:24.530Z,46.02
2022-11-16T17:43:28.709Z,45.90
2022-11-16T17:46:31.714Z,45.80
2022-11-16T17:49:35.202Z,45.82
2022-11-16T17:52:39.174Z,45.87
2022-11-16T17:55:45.491Z,45.87
2022-11-16T17:58:52.370Z,45.88
2022-11-16T18:01:55.497Z,45.84
2022-11-16T18:04:58.939Z,45.81
2022-11-16T18:08:02.353Z,45.62
2022-11-16T18:11:06.459Z,45.80
2022-11-16T18:14:12.803Z,45.79
2022-11-16T18:17:18.871Z,45.85
2022-11-16T18:20:29.879Z,45.88
2022-11-16T18:23:39.454Z,46.07
2022-11-16T18:26:43.866Z,46.17
2022-11-16T18:29:50.321Z,46.36
2022-11-16T18:32:53.094Z,46.22
2022-11-16T18:35:55.894Z,46.21
2022-11-16T18:39:01.507Z,46.42
2022-11-16T18:42:05.880Z,46.44
2022-11-16T18:45:13.341Z,46.43
2022-11-16T18:48:18.370Z,46.47
2022-11-16T18:51:21.834Z,46.74
2022-11-16T18:54:26.203Z,46.65
2022-11-16T18:57:29.101Z,46.83
2022-11-16T19:00:34.605Z,46.94
2022-11-16T19:03:38.654Z,46.83
2022-11-16T19:06:43.150Z,46.82
2022-11-16T19:09:51.789Z,46.80
2022-11-16T19:12:56.119Z,46.85
2022-11-16T19:16:05.532Z,46.96
2022-11-16T19:19:08.983Z,47.18
2022-11-16T19:22:11.993Z,47.00
2022-11-16T19:25:20.328Z,47.24
2022-11-16T19:28:23.114Z,47.21
2022-11-16T19:31:28.718Z,47.19
2022-11-16T19:34:33.487Z,47.27
2022-11-16T19:37:36.907Z,47.27
2022-11-16T19:40:40.025Z,47.30
2022-11-16T19:43:43.505Z,47.37
2022-11-16T19:46:47.656Z,47.31
2022-11-16T19:49:50.376Z,47.51
2022-11-16T19:52:53.392Z,47.48
2022-11-16T19:55:56.761Z,47.42
2022-11-16T19:58:59.591Z,47.46
2022-11-16T20:02:04.569Z,47.38
2022-11-16T20:05:09.012Z,47.41
2022-11-16T20:08:11.953Z,47.53
2022-11-16T20:11:20.373Z,47.40
2022-11-16T20:14:23.309Z,47.03
2022-11-16T20:17:31.852Z,47.32
2022-11-16T20:20:36.386Z,47.10
2022-11-16T20:23:39.703Z,47.28
2022-11-16T20:26:43.629Z,47.14
2022-11-16T20:29:46.401Z,47.60
2022-11-16T20:32:50.786Z,47.39
2022-11-16T20:35:53.615Z,47.79
2022-11-16T20:38:57.586Z,47.92
2022-11-16T20:42:00.440Z,47.81
2022-11-16T20:45:03.454Z,48.55
2022-11-16T20:48:07.870Z,48.31
2022-11-16T20:51:11.566Z,48.47
2022-11-16T20:54:14.344Z,48.46
2022-11-16T20:57:17.503Z,48.73
2022-11-16T21:00:21.786Z,48.60
2022-11-16T21:03:25.884Z,48.03
2022-11-16T21:06:29.213Z,48.58
2022-11-16T21:09:52.054Z,48.57
2022-11-16T21:13:12.399Z,48.84
2022-11-16T21:16:15.516Z,48.20
2022-11-16T21:19:19.727Z,48.18
2022-11-16T21:22:22.477Z,48.47
2022-11-16T21:25:25.298Z,48.31
2022-11-16T21:28:28.093Z,48.08
2022-11-16T21:31:31.696Z,47.52
2022-11-16T21:34:39.947Z,47.52
2022-11-16T21:37:43.102Z,48.41
2022-11-16T21:40:45.916Z,48.29
2022-11-16T21:43:48.664Z,48.55
2022-11-16T21:46:51.579Z,47.77
2022-11-16T21:50:24.804Z,47.86
2022-11-16T21:53:18.551Z,46.91
2022-11-16T21:56:22.330Z,46.82
2022-11-16T21:59:25.126Z,46.43
2022-11-16T22:02:27.958Z,46.14
2022-11-16T22:05:49.914Z,46.93
2022-11-16T22:08:52.755Z,46.77
2022-11-16T22:11:55.557Z,47.52
2022-11-16T22:14:58.512Z,47.67
2022-11-16T22:18:02.632Z,47.83
2022-11-16T22:21:08.304Z,47.90
2022-11-16T22:24:11.093Z,47.99
2022-11-16T22:27:15.343Z,47.16
2022-11-16T22:30:18.100Z,47.66
2022-11-16T22:33:20.898Z,47.41
2022-11-16T22:36:25.100Z,47.39
2022-11-16T22:39:27.873Z,47.91
2022-11-16T22:42:30.696Z,46.89
2022-11-16T22:45:34.540Z,47.12
2022-11-16T22:48:38.140Z,47.11
2022-11-16T22:51:42.454Z,46.77
2022-11-16T22:54:45.187Z,47.64
2022-11-16T22:57:48.008Z,47.55
2022-11-16T23:00:52.572Z,47.32
2022-11-16T23:03:55.470Z,47.46
2022-11-16T23:07:00.509Z,47.78
2022-11-16T23:10:03.337Z,47.85
2022-11-16T23:13:23.824Z,47.67
2022-11-16T23:16:26.628Z,47.63
2022-11-16T23:19:46.837Z,48.00
2022-11-16T23:23:08.616Z,47.97
2022-11-16T23:26:31.644Z,47.49
2022-11-16T23:29:34.553Z,47.82
2022-11-16T23:32:37.321Z,47.80
2022-11-16T23:35:40.108Z,48.00
2022-11-16T23:38:44.253Z,48.05
2022-11-16T23:42:04.415Z,47.91
2022-11-16T23:45:07.588Z,48.06
2022-11-16T23:48:11.471Z,48.03
2022-11-16T23:51:14.332Z,47.90
2022-11-16T23:54:18.480Z,47.72
2022-11-16T23:57:21.318Z,47.55
